Hilton Head Island, South Carolina
Current Conditions -  °F | °C
As of 3:50 PM on Tuesday 21 Oct 2014 (Local Time) from KHXD Reporting Station
Clear Clear  
Wind Chill: 79°   Ceiling: Unl
Heat Index: 80°   Visibility: 10mi
Dew Point: 57°   Wind: 8mph
Humidity: 47%   Direction: 220°SW
Pressure: 29.9"   Gusts: NA
Location:  32.15°N, 80.76°W
Report Text: KHXD 211950Z 22007KT 10SM SKC 26/14 A2990
Loading
Personal Weather Stations






























Interactive Weather Map
Tropical Storm Tracking
New forecast layout! Learn more

10-Day Weather Forecast

Advertisements
Track Severe Weather on mobile